sensor_id;sensor_type;location;lat;lon;timestamp;P1;durP1;ratioP1;P2;durP2;ratioP2
12593;SDS011;6362;50.208;9.182;2023-11-21T00:01:39;6.53;;;2.03;;
12593;SDS011;6362;50.208;9.182;2023-11-21T00:04:05;4.25;;;1.60;;
12593;SDS011;6362;50.208;9.182;2023-11-21T00:06:32;5.40;;;2.00;;
12593;SDS011;6362;50.208;9.182;2023-11-21T00:08:58;7.40;;;2.17;;
12593;SDS011;6362;50.208;9.182;2023-11-21T00:11:23;6.85;;;1.95;;
12593;SDS011;6362;50.208;9.182;2023-11-21T00:13:50;4.75;;;1.92;;
12593;SDS011;6362;50.208;9.182;2023-11-21T00:16:15;3.92;;;1.63;;
12593;SDS011;6362;50.208;9.182;2023-11-21T00:18:41;2.58;;;1.33;;
12593;SDS011;6362;50.208;9.182;2023-11-21T00:21:07;3.42;;;1.95;;
12593;SDS011;6362;50.208;9.182;2023-11-21T00:23:34;6.68;;;2.50;;
12593;SDS011;6362;50.208;9.182;2023-11-21T00:26:00;4.32;;;1.70;;
12593;SDS011;6362;50.208;9.182;2023-11-21T00:28:26;3.13;;;2.05;;
12593;SDS011;6362;50.208;9.182;2023-11-21T00:30:55;7.18;;;2.60;;
12593;SDS011;6362;50.208;9.182;2023-11-21T00:33:20;6.70;;;2.20;;
12593;SDS011;6362;50.208;9.182;2023-11-21T00:35:46;5.03;;;2.50;;
12593;SDS011;6362;50.208;9.182;2023-11-21T00:38:11;4.95;;;2.40;;
12593;SDS011;6362;50.208;9.182;2023-11-21T00:40:37;6.75;;;1.92;;
12593;SDS011;6362;50.208;9.182;2023-11-21T00:43:03;4.75;;;2.05;;
12593;SDS011;6362;50.208;9.182;2023-11-21T00:45:28;6.80;;;2.30;;
12593;SDS011;6362;50.208;9.182;2023-11-21T00:47:53;4.60;;;2.17;;
12593;SDS011;6362;50.208;9.182;2023-11-21T00:50:20;7.72;;;1.90;;
12593;SDS011;6362;50.208;9.182;2023-11-21T00:52:46;7.35;;;2.20;;
12593;SDS011;6362;50.208;9.182;2023-11-21T00:55:12;3.28;;;2.00;;
12593;SDS011;6362;50.208;9.182;2023-11-21T00:57:38;4.78;;;2.40;;
12593;SDS011;6362;50.208;9.182;2023-11-21T01:00:04;4.43;;;1.90;;
12593;SDS011;6362;50.208;9.182;2023-11-21T01:02:38;3.97;;;1.85;;
12593;SDS011;6362;50.208;9.182;2023-11-21T01:05:04;5.18;;;2.25;;
12593;SDS011;6362;50.208;9.182;2023-11-21T01:07:30;7.95;;;2.35;;
12593;SDS011;6362;50.208;9.182;2023-11-21T01:09:55;8.35;;;2.20;;
12593;SDS011;6362;50.208;9.182;2023-11-21T01:12:21;7.78;;;2.53;;
12593;SDS011;6362;50.208;9.182;2023-11-21T01:14:46;7.00;;;3.08;;
12593;SDS011;6362;50.208;9.182;2023-11-21T01:17:12;6.43;;;2.00;;
12593;SDS011;6362;50.208;9.182;2023-11-21T01:19:37;5.38;;;1.70;;
12593;SDS011;6362;50.208;9.182;2023-11-21T01:22:03;4.15;;;1.90;;
12593;SDS011;6362;50.208;9.182;2023-11-21T01:24:28;3.05;;;1.70;;
12593;SDS011;6362;50.208;9.182;2023-11-21T01:26:54;2.92;;;1.70;;
12593;SDS011;6362;50.208;9.182;2023-11-21T01:29:19;4.68;;;2.03;;
12593;SDS011;6362;50.208;9.182;2023-11-21T01:31:45;6.38;;;2.22;;
12593;SDS011;6362;50.208;9.182;2023-11-21T01:34:10;4.13;;;1.80;;
12593;SDS011;6362;50.208;9.182;2023-11-21T01:36:35;4.63;;;1.60;;
12593;SDS011;6362;50.208;9.182;2023-11-21T01:39:01;2.15;;;1.92;;
12593;SDS011;6362;50.208;9.182;2023-11-21T01:41:27;4.95;;;1.80;;
12593;SDS011;6362;50.208;9.182;2023-11-21T01:43:53;2.15;;;1.40;;
12593;SDS011;6362;50.208;9.182;2023-11-21T01:46:20;4.38;;;1.92;;
12593;SDS011;6362;50.208;9.182;2023-11-21T01:48:46;4.05;;;1.60;;
12593;SDS011;6362;50.208;9.182;2023-11-21T01:51:13;2.72;;;1.60;;
12593;SDS011;6362;50.208;9.182;2023-11-21T01:53:39;3.63;;;1.60;;
12593;SDS011;6362;50.208;9.182;2023-11-21T01:56:05;3.08;;;1.70;;
12593;SDS011;6362;50.208;9.182;2023-11-21T01:58:33;5.50;;;3.15;;
12593;SDS011;6362;50.208;9.182;2023-11-21T02:00:58;4.18;;;1.85;;
12593;SDS011;6362;50.208;9.182;2023-11-21T02:03:24;2.75;;;1.63;;
12593;SDS011;6362;50.208;9.182;2023-11-21T02:05:51;5.55;;;1.70;;
12593;SDS011;6362;50.208;9.182;2023-11-21T02:08:18;3.95;;;2.00;;
12593;SDS011;6362;50.208;9.182;2023-11-21T02:10:44;4.18;;;1.73;;
12593;SDS011;6362;50.208;9.182;2023-11-21T02:13:10;2.97;;;1.73;;
12593;SDS011;6362;50.208;9.182;2023-11-21T02:15:36;3.95;;;2.35;;
12593;SDS011;6362;50.208;9.182;2023-11-21T02:18:03;5.47;;;2.03;;
12593;SDS011;6362;50.208;9.182;2023-11-21T02:20:30;4.47;;;1.95;;
12593;SDS011;6362;50.208;9.182;2023-11-21T02:22:59;6.43;;;1.80;;
12593;SDS011;6362;50.208;9.182;2023-11-21T02:25:26;4.55;;;1.80;;
12593;SDS011;6362;50.208;9.182;2023-11-21T02:27:55;8.25;;;3.58;;
12593;SDS011;6362;50.208;9.182;2023-11-21T02:30:22;4.15;;;1.70;;
12593;SDS011;6362;50.208;9.182;2023-11-21T02:32:50;3.25;;;1.48;;
12593;SDS011;6362;50.208;9.182;2023-11-21T02:35:18;3.80;;;1.90;;
12593;SDS011;6362;50.208;9.182;2023-11-21T02:37:46;3.35;;;1.88;;
12593;SDS011;6362;50.208;9.182;2023-11-21T02:40:12;3.97;;;1.88;;
12593;SDS011;6362;50.208;9.182;2023-11-21T02:42:38;4.63;;;1.90;;
12593;SDS011;6362;50.208;9.182;2023-11-21T02:45:05;3.67;;;2.25;;
12593;SDS011;6362;50.208;9.182;2023-11-21T02:47:32;6.78;;;1.85;;
12593;SDS011;6362;50.208;9.182;2023-11-21T02:49:58;4.90;;;1.70;;
12593;SDS011;6362;50.208;9.182;2023-11-21T02:52:24;3.38;;;1.67;;
12593;SDS011;6362;50.208;9.182;2023-11-21T02:54:50;6.15;;;2.30;;
12593;SDS011;6362;50.208;9.182;2023-11-21T02:57:16;4.70;;;2.10;;
12593;SDS011;6362;50.208;9.182;2023-11-21T02:59:41;5.32;;;2.30;;
12593;SDS011;6362;50.208;9.182;2023-11-21T03:02:07;7.15;;;2.85;;
12593;SDS011;6362;50.208;9.182;2023-11-21T03:04:33;8.02;;;2.72;;
12593;SDS011;6362;50.208;9.182;2023-11-21T03:06:59;6.68;;;2.97;;
12593;SDS011;6362;50.208;9.182;2023-11-21T03:09:25;6.53;;;3.00;;
12593;SDS011;6362;50.208;9.182;2023-11-21T03:11:51;6.82;;;3.13;;
12593;SDS011;6362;50.208;9.182;2023-11-21T03:14:17;8.88;;;3.30;;
12593;SDS011;6362;50.208;9.182;2023-11-21T03:16:43;7.35;;;2.72;;
12593;SDS011;6362;50.208;9.182;2023-11-21T03:19:09;7.65;;;3.38;;
12593;SDS011;6362;50.208;9.182;2023-11-21T03:21:34;7.03;;;3.05;;
12593;SDS011;6362;50.208;9.182;2023-11-21T03:24:00;4.60;;;2.60;;
12593;SDS011;6362;50.208;9.182;2023-11-21T03:26:26;3.92;;;2.17;;
12593;SDS011;6362;50.208;9.182;2023-11-21T03:28:52;4.75;;;2.40;;
12593;SDS011;6362;50.208;9.182;2023-11-21T03:31:18;4.95;;;2.28;;
12593;SDS011;6362;50.208;9.182;2023-11-21T03:33:44;6.95;;;2.33;;
12593;SDS011;6362;50.208;9.182;2023-11-21T03:36:10;3.42;;;2.03;;
12593;SDS011;6362;50.208;9.182;2023-11-21T03:38:36;2.70;;;2.05;;
12593;SDS011;6362;50.208;9.182;2023-11-21T03:41:02;5.47;;;1.52;;
12593;SDS011;6362;50.208;9.182;2023-11-21T03:43:28;4.68;;;2.03;;
12593;SDS011;6362;50.208;9.182;2023-11-21T03:45:54;2.45;;;1.95;;
12593;SDS011;6362;50.208;9.182;2023-11-21T03:48:19;4.35;;;1.98;;
12593;SDS011;6362;50.208;9.182;2023-11-21T03:50:45;6.45;;;1.98;;
12593;SDS011;6362;50.208;9.182;2023-11-21T03:53:13;4.97;;;2.30;;
12593;SDS011;6362;50.208;9.182;2023-11-21T03:55:38;3.28;;;1.80;;
12593;SDS011;6362;50.208;9.182;2023-11-21T03:58:04;6.32;;;2.20;;
12593;SDS011;6362;50.208;9.182;2023-11-21T04:00:29;7.32;;;2.00;;
12593;SDS011;6362;50.208;9.182;2023-11-21T04:02:54;3.90;;;1.77;;
12593;SDS011;6362;50.208;9.182;2023-11-21T04:05:21;3.88;;;2.20;;
12593;SDS011;6362;50.208;9.182;2023-11-21T04:07:48;4.10;;;2.38;;
12593;SDS011;6362;50.208;9.182;2023-11-21T04:10:14;3.05;;;1.70;;
12593;SDS011;6362;50.208;9.182;2023-11-21T04:12:40;4.72;;;2.42;;
12593;SDS011;6362;50.208;9.182;2023-11-21T04:15:06;5.13;;;2.15;;
12593;SDS011;6362;50.208;9.182;2023-11-21T04:17:33;3.60;;;2.10;;
12593;SDS011;6362;50.208;9.182;2023-11-21T04:19:59;3.97;;;2.13;;
12593;SDS011;6362;50.208;9.182;2023-11-21T04:22:25;4.97;;;2.00;;
12593;SDS011;6362;50.208;9.182;2023-11-21T04:24:50;4.30;;;2.00;;
12593;SDS011;6362;50.208;9.182;2023-11-21T04:27:15;3.00;;;2.38;;
12593;SDS011;6362;50.208;9.182;2023-11-21T04:29:43;2.97;;;1.98;;
12593;SDS011;6362;50.208;9.182;2023-11-21T04:32:09;7.65;;;2.47;;
12593;SDS011;6362;50.208;9.182;2023-11-21T04:34:35;2.60;;;2.10;;
12593;SDS011;6362;50.208;9.182;2023-11-21T04:37:00;5.00;;;2.75;;
12593;SDS011;6362;50.208;9.182;2023-11-21T04:39:26;3.33;;;2.67;;
12593;SDS011;6362;50.208;9.182;2023-11-21T04:41:51;3.75;;;2.58;;
12593;SDS011;6362;50.208;9.182;2023-11-21T04:44:17;4.85;;;2.70;;
12593;SDS011;6362;50.208;9.182;2023-11-21T04:46:42;3.78;;;2.60;;
12593;SDS011;6362;50.208;9.182;2023-11-21T04:49:08;7.40;;;3.00;;
12593;SDS011;6362;50.208;9.182;2023-11-21T04:51:34;4.53;;;2.80;;
12593;SDS011;6362;50.208;9.182;2023-11-21T04:53:59;5.63;;;3.72;;
12593;SDS011;6362;50.208;9.182;2023-11-21T04:56:24;4.85;;;3.13;;
12593;SDS011;6362;50.208;9.182;2023-11-21T04:58:50;8.15;;;4.45;;
12593;SDS011;6362;50.208;9.182;2023-11-21T05:01:15;4.30;;;2.97;;
12593;SDS011;6362;50.208;9.182;2023-11-21T05:03:41;3.03;;;2.50;;
12593;SDS011;6362;50.208;9.182;2023-11-21T05:06:09;5.37;;;3.20;;
12593;SDS011;6362;50.208;9.182;2023-11-21T05:08:35;3.75;;;3.00;;
12593;SDS011;6362;50.208;9.182;2023-11-21T05:11:02;4.85;;;2.97;;
12593;SDS011;6362;50.208;9.182;2023-11-21T05:13:28;4.28;;;2.83;;
12593;SDS011;6362;50.208;9.182;2023-11-21T05:15:56;6.90;;;3.15;;
12593;SDS011;6362;50.208;9.182;2023-11-21T05:18:25;7.03;;;3.13;;
12593;SDS011;6362;50.208;9.182;2023-11-21T05:20:54;4.68;;;2.75;;
12593;SDS011;6362;50.208;9.182;2023-11-21T05:23:21;4.88;;;3.08;;
12593;SDS011;6362;50.208;9.182;2023-11-21T05:25:46;4.75;;;3.15;;
12593;SDS011;6362;50.208;9.182;2023-11-21T05:28:12;4.53;;;2.70;;
12593;SDS011;6362;50.208;9.182;2023-11-21T05:30:37;4.25;;;2.60;;
12593;SDS011;6362;50.208;9.182;2023-11-21T05:33:06;7.22;;;3.13;;
12593;SDS011;6362;50.208;9.182;2023-11-21T05:35:32;3.60;;;2.70;;
12593;SDS011;6362;50.208;9.182;2023-11-21T05:37:57;6.97;;;3.10;;
12593;SDS011;6362;50.208;9.182;2023-11-21T05:40:22;3.35;;;2.35;;
12593;SDS011;6362;50.208;9.182;2023-11-21T05:42:48;5.45;;;2.42;;
12593;SDS011;6362;50.208;9.182;2023-11-21T05:45:14;5.25;;;2.75;;
12593;SDS011;6362;50.208;9.182;2023-11-21T05:47:44;1.95;;;1.50;;
12593;SDS011;6362;50.208;9.182;2023-11-21T05:50:11;2.60;;;1.40;;
12593;SDS011;6362;50.208;9.182;2023-11-21T05:52:42;3.13;;;1.80;;
12593;SDS011;6362;50.208;9.182;2023-11-21T05:55:08;3.35;;;1.70;;
12593;SDS011;6362;50.208;9.182;2023-11-21T05:57:34;4.07;;;2.40;;
12593;SDS011;6362;50.208;9.182;2023-11-21T06:00:04;3.83;;;1.88;;
12593;SDS011;6362;50.208;9.182;2023-11-21T06:02:36;3.88;;;1.90;;
12593;SDS011;6362;50.208;9.182;2023-11-21T06:05:03;1.73;;;1.35;;
12593;SDS011;6362;50.208;9.182;2023-11-21T06:07:29;2.60;;;1.35;;
12593;SDS011;6362;50.208;9.182;2023-11-21T06:09:54;2.63;;;1.95;;
12593;SDS011;6362;50.208;9.182;2023-11-21T06:12:20;5.07;;;2.38;;
12593;SDS011;6362;50.208;9.182;2023-11-21T06:14:45;2.85;;;2.00;;
12593;SDS011;6362;50.208;9.182;2023-11-21T06:17:11;2.83;;;1.75;;
12593;SDS011;6362;50.208;9.182;2023-11-21T06:19:36;2.60;;;1.80;;
12593;SDS011;6362;50.208;9.182;2023-11-21T06:22:02;3.28;;;1.88;;
12593;SDS011;6362;50.208;9.182;2023-11-21T06:24:27;7.03;;;2.92;;
12593;SDS011;6362;50.208;9.182;2023-11-21T06:26:53;5.38;;;3.17;;
12593;SDS011;6362;50.208;9.182;2023-11-21T06:29:18;4.47;;;2.90;;
12593;SDS011;6362;50.208;9.182;2023-11-21T06:31:44;4.55;;;2.90;;
12593;SDS011;6362;50.208;9.182;2023-11-21T06:34:09;5.35;;;3.40;;
12593;SDS011;6362;50.208;9.182;2023-11-21T06:36:35;9.00;;;3.40;;
12593;SDS011;6362;50.208;9.182;2023-11-21T06:39:01;3.85;;;2.75;;
12593;SDS011;6362;50.208;9.182;2023-11-21T06:41:26;3.95;;;2.58;;
12593;SDS011;6362;50.208;9.182;2023-11-21T06:43:51;3.55;;;1.95;;
12593;SDS011;6362;50.208;9.182;2023-11-21T06:46:18;4.13;;;2.10;;
12593;SDS011;6362;50.208;9.182;2023-11-21T06:48:44;3.58;;;2.13;;
12593;SDS011;6362;50.208;9.182;2023-11-21T06:51:10;2.65;;;2.00;;
12593;SDS011;6362;50.208;9.182;2023-11-21T06:53:36;2.38;;;1.63;;
12593;SDS011;6362;50.208;9.182;2023-11-21T06:56:02;2.03;;;1.52;;
12593;SDS011;6362;50.208;9.182;2023-11-21T06:58:28;2.95;;;1.70;;
12593;SDS011;6362;50.208;9.182;2023-11-21T07:00:54;2.55;;;1.90;;
12593;SDS011;6362;50.208;9.182;2023-11-21T07:03:19;5.18;;;2.15;;
12593;SDS011;6362;50.208;9.182;2023-11-21T07:05:45;2.72;;;1.83;;
12593;SDS011;6362;50.208;9.182;2023-11-21T07:08:10;3.38;;;1.60;;
12593;SDS011;6362;50.208;9.182;2023-11-21T07:10:37;1.95;;;1.27;;
12593;SDS011;6362;50.208;9.182;2023-11-21T07:13:03;2.42;;;1.65;;
12593;SDS011;6362;50.208;9.182;2023-11-21T07:15:28;4.88;;;1.70;;
12593;SDS011;6362;50.208;9.182;2023-11-21T07:17:54;3.45;;;1.70;;
12593;SDS011;6362;50.208;9.182;2023-11-21T07:20:19;2.17;;;1.50;;
12593;SDS011;6362;50.208;9.182;2023-11-21T07:22:45;2.75;;;1.58;;
12593;SDS011;6362;50.208;9.182;2023-11-21T07:25:10;4.18;;;1.95;;
12593;SDS011;6362;50.208;9.182;2023-11-21T07:27:37;1.80;;;1.20;;
12593;SDS011;6362;50.208;9.182;2023-11-21T07:30:02;2.13;;;1.35;;
12593;SDS011;6362;50.208;9.182;2023-11-21T07:32:32;2.60;;;1.23;;
12593;SDS011;6362;50.208;9.182;2023-11-21T07:34:58;2.22;;;1.40;;
12593;SDS011;6362;50.208;9.182;2023-11-21T07:37:26;2.40;;;1.38;;
12593;SDS011;6362;50.208;9.182;2023-11-21T07:39:53;4.05;;;1.48;;
12593;SDS011;6362;50.208;9.182;2023-11-21T07:42:21;2.45;;;1.10;;
12593;SDS011;6362;50.208;9.182;2023-11-21T07:44:49;1.48;;;1.00;;
12593;SDS011;6362;50.208;9.182;2023-11-21T07:47:15;4.30;;;1.63;;
12593;SDS011;6362;50.208;9.182;2023-11-21T07:49:40;2.88;;;1.38;;
12593;SDS011;6362;50.208;9.182;2023-11-21T07:52:08;4.57;;;1.52;;
12593;SDS011;6362;50.208;9.182;2023-11-21T07:54:34;3.05;;;1.52;;
12593;SDS011;6362;50.208;9.182;2023-11-21T07:57:01;2.38;;;1.35;;
12593;SDS011;6362;50.208;9.182;2023-11-21T07:59:27;2.53;;;1.55;;
12593;SDS011;6362;50.208;9.182;2023-11-21T08:01:53;6.60;;;2.22;;
12593;SDS011;6362;50.208;9.182;2023-11-21T08:04:19;3.03;;;1.90;;
12593;SDS011;6362;50.208;9.182;2023-11-21T08:06:44;4.45;;;1.83;;
12593;SDS011;6362;50.208;9.182;2023-11-21T08:09:10;3.65;;;1.80;;
12593;SDS011;6362;50.208;9.182;2023-11-21T08:11:37;4.85;;;1.95;;
12593;SDS011;6362;50.208;9.182;2023-11-21T08:14:04;4.03;;;2.20;;
12593;SDS011;6362;50.208;9.182;2023-11-21T08:16:30;2.85;;;1.63;;
12593;SDS011;6362;50.208;9.182;2023-11-21T08:18:55;3.80;;;2.13;;
12593;SDS011;6362;50.208;9.182;2023-11-21T08:21:21;4.10;;;1.98;;
12593;SDS011;6362;50.208;9.182;2023-11-21T08:23:49;5.10;;;2.38;;
12593;SDS011;6362;50.208;9.182;2023-11-21T08:26:19;4.53;;;2.42;;
12593;SDS011;6362;50.208;9.182;2023-11-21T08:28:45;8.20;;;4.07;;
12593;SDS011;6362;50.208;9.182;2023-11-21T08:31:12;2.63;;;1.40;;
12593;SDS011;6362;50.208;9.182;2023-11-21T08:33:38;2.35;;;1.13;;
12593;SDS011;6362;50.208;9.182;2023-11-21T08:36:06;3.17;;;1.80;;
12593;SDS011;6362;50.208;9.182;2023-11-21T08:38:33;3.58;;;1.67;;
12593;SDS011;6362;50.208;9.182;2023-11-21T08:41:02;4.82;;;1.73;;
12593;SDS011;6362;50.208;9.182;2023-11-21T08:43:32;3.85;;;1.92;;
12593;SDS011;6362;50.208;9.182;2023-11-21T08:45:59;4.40;;;1.52;;
12593;SDS011;6362;50.208;9.182;2023-11-21T08:48:25;4.22;;;1.70;;
12593;SDS011;6362;50.208;9.182;2023-11-21T08:50:50;3.20;;;1.50;;
12593;SDS011;6362;50.208;9.182;2023-11-21T08:53:16;3.53;;;2.20;;
12593;SDS011;6362;50.208;9.182;2023-11-21T08:55:41;3.42;;;1.63;;
12593;SDS011;6362;50.208;9.182;2023-11-21T08:58:09;3.78;;;1.63;;
12593;SDS011;6362;50.208;9.182;2023-11-21T09:00:34;4.40;;;1.98;;
12593;SDS011;6362;50.208;9.182;2023-11-21T09:03:01;4.25;;;1.13;;
12593;SDS011;6362;50.208;9.182;2023-11-21T09:05:28;6.70;;;1.20;;
12593;SDS011;6362;50.208;9.182;2023-11-21T09:07:53;3.75;;;1.30;;
12593;SDS011;6362;50.208;9.182;2023-11-21T09:10:19;4.88;;;1.85;;
12593;SDS011;6362;50.208;9.182;2023-11-21T09:12:45;5.47;;;1.42;;
12593;SDS011;6362;50.208;9.182;2023-11-21T09:15:11;2.95;;;1.50;;
12593;SDS011;6362;50.208;9.182;2023-11-21T09:17:36;3.10;;;0.90;;
12593;SDS011;6362;50.208;9.182;2023-11-21T09:20:02;2.58;;;1.25;;
12593;SDS011;6362;50.208;9.182;2023-11-21T09:22:30;2.58;;;1.13;;
12593;SDS011;6362;50.208;9.182;2023-11-21T09:24:56;1.52;;;0.90;;
12593;SDS011;6362;50.208;9.182;2023-11-21T09:27:22;2.92;;;1.00;;
12593;SDS011;6362;50.208;9.182;2023-11-21T09:29:48;4.22;;;1.70;;
12593;SDS011;6362;50.208;9.182;2023-11-21T09:32:14;4.10;;;1.30;;
12593;SDS011;6362;50.208;9.182;2023-11-21T09:34:43;2.58;;;1.27;;
12593;SDS011;6362;50.208;9.182;2023-11-21T09:37:09;2.10;;;1.45;;
12593;SDS011;6362;50.208;9.182;2023-11-21T09:39:34;3.80;;;1.45;;
12593;SDS011;6362;50.208;9.182;2023-11-21T09:42:04;5.03;;;1.67;;
12593;SDS011;6362;50.208;9.182;2023-11-21T09:47:10;5.95;;;2.30;;
12593;SDS011;6362;50.208;9.182;2023-11-21T09:49:41;5.63;;;2.22;;
12593;SDS011;6362;50.208;9.182;2023-11-21T09:52:11;4.65;;;1.77;;
12593;SDS011;6362;50.208;9.182;2023-11-21T09:54:44;7.35;;;1.83;;
12593;SDS011;6362;50.208;9.182;2023-11-21T09:57:10;4.10;;;1.75;;
12593;SDS011;6362;50.208;9.182;2023-11-21T09:59:36;2.90;;;1.52;;
12593;SDS011;6362;50.208;9.182;2023-11-21T10:02:03;4.13;;;1.50;;
12593;SDS011;6362;50.208;9.182;2023-11-21T10:04:29;3.13;;;1.23;;
12593;SDS011;6362;50.208;9.182;2023-11-21T10:06:56;3.38;;;1.30;;
12593;SDS011;6362;50.208;9.182;2023-11-21T10:09:22;8.73;;;3.28;;
12593;SDS011;6362;50.208;9.182;2023-11-21T10:11:49;6.00;;;1.52;;
12593;SDS011;6362;50.208;9.182;2023-11-21T10:14:17;6.22;;;1.40;;
12593;SDS011;6362;50.208;9.182;2023-11-21T10:16:46;5.85;;;1.42;;
12593;SDS011;6362;50.208;9.182;2023-11-21T10:19:13;2.08;;;1.40;;
12593;SDS011;6362;50.208;9.182;2023-11-21T10:21:41;2.33;;;1.33;;
12593;SDS011;6362;50.208;9.182;2023-11-21T10:24:07;3.28;;;1.58;;
12593;SDS011;6362;50.208;9.182;2023-11-21T10:26:32;5.55;;;1.52;;
12593;SDS011;6362;50.208;9.182;2023-11-21T10:28:59;2.55;;;1.35;;
12593;SDS011;6362;50.208;9.182;2023-11-21T10:31:29;2.90;;;1.33;;
12593;SDS011;6362;50.208;9.182;2023-11-21T10:34:17;4.65;;;1.80;;
12593;SDS011;6362;50.208;9.182;2023-11-21T10:36:42;4.63;;;2.20;;
12593;SDS011;6362;50.208;9.182;2023-11-21T10:39:08;3.40;;;1.27;;
12593;SDS011;6362;50.208;9.182;2023-11-21T10:41:34;4.55;;;1.40;;
12593;SDS011;6362;50.208;9.182;2023-11-21T10:44:00;3.63;;;1.20;;
12593;SDS011;6362;50.208;9.182;2023-11-21T10:46:29;3.28;;;1.10;;
12593;SDS011;6362;50.208;9.182;2023-11-21T10:48:55;5.22;;;1.20;;
12593;SDS011;6362;50.208;9.182;2023-11-21T10:51:21;6.82;;;1.80;;
12593;SDS011;6362;50.208;9.182;2023-11-21T10:53:52;3.95;;;1.27;;
12593;SDS011;6362;50.208;9.182;2023-11-21T10:56:18;3.33;;;1.17;;
12593;SDS011;6362;50.208;9.182;2023-11-21T10:58:46;4.63;;;1.35;;
12593;SDS011;6362;50.208;9.182;2023-11-21T11:01:14;2.58;;;1.27;;
12593;SDS011;6362;50.208;9.182;2023-11-21T11:03:42;4.57;;;1.15;;
12593;SDS011;6362;50.208;9.182;2023-11-21T11:06:09;2.83;;;1.20;;
12593;SDS011;6362;50.208;9.182;2023-11-21T11:08:38;4.50;;;1.20;;
12593;SDS011;6362;50.208;9.182;2023-11-21T11:11:07;7.75;;;1.58;;
12593;SDS011;6362;50.208;9.182;2023-11-21T11:13:35;5.88;;;1.40;;
12593;SDS011;6362;50.208;9.182;2023-11-21T11:16:02;4.22;;;1.35;;
12593;SDS011;6362;50.208;9.182;2023-11-21T11:18:32;4.20;;;1.73;;
12593;SDS011;6362;50.208;9.182;2023-11-21T11:21:09;3.33;;;1.55;;
12593;SDS011;6362;50.208;9.182;2023-11-21T11:34:36;5.72;;;1.88;;
12593;SDS011;6362;50.208;9.182;2023-11-21T11:37:07;4.97;;;2.10;;
12593;SDS011;6362;50.208;9.182;2023-11-21T11:42:13;4.55;;;1.70;;
12593;SDS011;6362;50.208;9.182;2023-11-21T11:47:15;5.13;;;1.83;;
12593;SDS011;6362;50.208;9.182;2023-11-21T11:50:04;2.78;;;1.80;;
12593;SDS011;6362;50.208;9.182;2023-11-21T11:52:39;3.08;;;1.88;;
12593;SDS011;6362;50.208;9.182;2023-11-21T11:55:07;5.40;;;2.00;;
12593;SDS011;6362;50.208;9.182;2023-11-21T11:57:37;5.97;;;1.77;;
12593;SDS011;6362;50.208;9.182;2023-11-21T12:02:48;4.47;;;1.98;;
12593;SDS011;6362;50.208;9.182;2023-11-21T12:05:15;9.05;;;2.92;;
12593;SDS011;6362;50.208;9.182;2023-11-21T12:07:44;5.40;;;2.42;;
12593;SDS011;6362;50.208;9.182;2023-11-21T12:10:14;5.60;;;2.08;;
12593;SDS011;6362;50.208;9.182;2023-11-21T12:12:43;4.72;;;2.25;;
12593;SDS011;6362;50.208;9.182;2023-11-21T12:15:11;7.63;;;2.30;;
12593;SDS011;6362;50.208;9.182;2023-11-21T12:17:37;3.33;;;1.70;;
12593;SDS011;6362;50.208;9.182;2023-11-21T12:20:03;3.63;;;1.85;;
12593;SDS011;6362;50.208;9.182;2023-11-21T12:22:31;8.05;;;2.42;;
12593;SDS011;6362;50.208;9.182;2023-11-21T12:24:56;4.13;;;2.20;;
12593;SDS011;6362;50.208;9.182;2023-11-21T12:27:22;7.55;;;1.75;;
12593;SDS011;6362;50.208;9.182;2023-11-21T12:29:47;4.68;;;2.50;;
12593;SDS011;6362;50.208;9.182;2023-11-21T12:32:13;4.43;;;2.17;;
12593;SDS011;6362;50.208;9.182;2023-11-21T12:34:42;6.40;;;1.83;;
12593;SDS011;6362;50.208;9.182;2023-11-21T12:37:08;4.00;;;1.63;;
12593;SDS011;6362;50.208;9.182;2023-11-21T12:39:34;4.03;;;2.10;;
12593;SDS011;6362;50.208;9.182;2023-11-21T12:41:59;1.88;;;1.67;;
12593;SDS011;6362;50.208;9.182;2023-11-21T12:44:25;3.28;;;1.70;;
12593;SDS011;6362;50.208;9.182;2023-11-21T12:46:50;7.63;;;1.80;;
12593;SDS011;6362;50.208;9.182;2023-11-21T12:49:17;4.53;;;1.80;;
12593;SDS011;6362;50.208;9.182;2023-11-21T12:51:45;4.00;;;1.55;;
12593;SDS011;6362;50.208;9.182;2023-11-21T12:54:12;4.80;;;1.88;;
12593;SDS011;6362;50.208;9.182;2023-11-21T12:56:40;8.68;;;2.08;;
12593;SDS011;6362;50.208;9.182;2023-11-21T12:59:06;2.58;;;1.42;;
12593;SDS011;6362;50.208;9.182;2023-11-21T13:01:31;4.15;;;1.60;;
12593;SDS011;6362;50.208;9.182;2023-11-21T13:03:57;6.00;;;1.95;;
12593;SDS011;6362;50.208;9.182;2023-11-21T13:06:27;6.70;;;2.05;;
12593;SDS011;6362;50.208;9.182;2023-11-21T13:08:55;6.45;;;3.08;;
12593;SDS011;6362;50.208;9.182;2023-11-21T13:11:22;5.30;;;2.10;;
12593;SDS011;6362;50.208;9.182;2023-11-21T13:13:47;6.03;;;1.80;;
12593;SDS011;6362;50.208;9.182;2023-11-21T13:16:18;6.18;;;2.00;;
12593;SDS011;6362;50.208;9.182;2023-11-21T13:18:45;2.40;;;1.75;;
12593;SDS011;6362;50.208;9.182;2023-11-21T13:21:11;4.65;;;2.03;;
12593;SDS011;6362;50.208;9.182;2023-11-21T13:23:40;5.45;;;2.15;;
12593;SDS011;6362;50.208;9.182;2023-11-21T13:26:07;4.88;;;1.67;;
12593;SDS011;6362;50.208;9.182;2023-11-21T13:28:34;6.30;;;2.00;;
12593;SDS011;6362;50.208;9.182;2023-11-21T13:31:02;6.30;;;2.40;;
12593;SDS011;6362;50.208;9.182;2023-11-21T13:33:35;7.57;;;2.15;;
12593;SDS011;6362;50.208;9.182;2023-11-21T13:36:03;7.63;;;2.17;;
12593;SDS011;6362;50.208;9.182;2023-11-21T13:38:33;4.90;;;2.25;;
12593;SDS011;6362;50.208;9.182;2023-11-21T13:41:00;6.15;;;2.38;;
12593;SDS011;6362;50.208;9.182;2023-11-21T13:43:26;5.53;;;2.75;;
12593;SDS011;6362;50.208;9.182;2023-11-21T13:45:54;5.10;;;2.90;;
12593;SDS011;6362;50.208;9.182;2023-11-21T13:48:29;9.60;;;2.80;;
12593;SDS011;6362;50.208;9.182;2023-11-21T13:51:03;5.97;;;2.83;;
12593;SDS011;6362;50.208;9.182;2023-11-21T13:56:04;5.45;;;2.67;;
12593;SDS011;6362;50.208;9.182;2023-11-21T13:58:30;8.95;;;3.22;;
12593;SDS011;6362;50.208;9.182;2023-11-21T14:01:17;7.70;;;3.08;;
12593;SDS011;6362;50.208;9.182;2023-11-21T14:03:55;6.57;;;2.63;;
12593;SDS011;6362;50.208;9.182;2023-11-21T14:06:34;5.15;;;3.08;;
12593;SDS011;6362;50.208;9.182;2023-11-21T14:09:08;6.13;;;2.72;;
12593;SDS011;6362;50.208;9.182;2023-11-21T14:11:34;6.20;;;3.10;;
12593;SDS011;6362;50.208;9.182;2023-11-21T14:14:03;5.25;;;2.90;;
12593;SDS011;6362;50.208;9.182;2023-11-21T14:16:28;5.88;;;3.13;;
12593;SDS011;6362;50.208;9.182;2023-11-21T14:18:54;8.02;;;3.03;;
12593;SDS011;6362;50.208;9.182;2023-11-21T14:21:36;4.85;;;2.75;;
12593;SDS011;6362;50.208;9.182;2023-11-21T14:24:02;7.53;;;3.33;;
12593;SDS011;6362;50.208;9.182;2023-11-21T14:26:28;5.88;;;2.80;;
12593;SDS011;6362;50.208;9.182;2023-11-21T14:28:54;8.13;;;3.83;;
12593;SDS011;6362;50.208;9.182;2023-11-21T14:31:19;5.18;;;3.25;;
12593;SDS011;6362;50.208;9.182;2023-11-21T14:33:45;6.97;;;3.15;;
12593;SDS011;6362;50.208;9.182;2023-11-21T14:36:10;5.35;;;3.03;;
12593;SDS011;6362;50.208;9.182;2023-11-21T14:38:36;4.70;;;2.58;;
12593;SDS011;6362;50.208;9.182;2023-11-21T14:41:04;7.75;;;4.68;;
12593;SDS011;6362;50.208;9.182;2023-11-21T14:43:33;6.90;;;3.25;;
12593;SDS011;6362;50.208;9.182;2023-11-21T14:46:00;5.47;;;4.00;;
12593;SDS011;6362;50.208;9.182;2023-11-21T14:48:27;4.97;;;3.20;;
12593;SDS011;6362;50.208;9.182;2023-11-21T14:51:07;7.10;;;4.10;;
12593;SDS011;6362;50.208;9.182;2023-11-21T14:53:38;8.15;;;4.65;;
12593;SDS011;6362;50.208;9.182;2023-11-21T14:56:30;5.35;;;3.60;;
12593;SDS011;6362;50.208;9.182;2023-11-21T14:58:57;8.68;;;4.18;;
12593;SDS011;6362;50.208;9.182;2023-11-21T15:01:25;7.25;;;3.58;;
12593;SDS011;6362;50.208;9.182;2023-11-21T15:04:16;7.97;;;3.70;;
12593;SDS011;6362;50.208;9.182;2023-11-21T15:07:08;7.60;;;3.90;;
12593;SDS011;6362;50.208;9.182;2023-11-21T15:09:34;7.80;;;4.03;;
12593;SDS011;6362;50.208;9.182;2023-11-21T15:12:00;5.72;;;3.55;;
12593;SDS011;6362;50.208;9.182;2023-11-21T15:14:46;6.80;;;4.13;;
12593;SDS011;6362;50.208;9.182;2023-11-21T15:17:17;5.13;;;3.58;;
12593;SDS011;6362;50.208;9.182;2023-11-21T15:19:52;6.55;;;3.75;;
12593;SDS011;6362;50.208;9.182;2023-11-21T15:22:18;10.18;;;4.28;;
12593;SDS011;6362;50.208;9.182;2023-11-21T15:24:44;6.88;;;3.78;;